Time;durP1;ratioP1;P1;durP2;ratioP2;P2;SDS_P1;SDS_P2;PMS_P1;PMS_P2;Temp;Humidity;BMP_temperature;BMP_pressure;BME280_temperature;BME280_humidity;BME280_pressure;Samples;Min_cycle;Max_cycle;Signal;HPM_P1;HPM_P2
2022/05/16 00:01:52;;;;;;;;;;;15.50;99.90;;;14.63;78.57;95654.31;10507521;28;1979;-75
2022/05/16 00:06:55;;;;;;;;;;;15.50;99.90;;;14.60;79.33;95645.69;10482958;28;1822;-75
2022/05/16 00:11:58;;;;;;;;;;;15.50;99.90;;;14.60;80.72;95656.50;10500940;28;1863;-76
2022/05/16 00:17:01;;;;;;;;;;;15.50;99.90;;;14.57;80.85;95673.38;10491788;28;2393;-77
2022/05/16 00:22:05;;;;;;;;;;;15.50;99.90;;;14.59;80.22;95660.31;10503075;28;2083;-75
2022/05/16 00:27:09;;;;;;;;;;;15.50;99.90;;;14.62;80.90;95658.13;10483004;28;1884;-76
2022/05/16 00:32:13;;;;;;;;;;;15.50;99.90;;;14.56;82.12;95671.72;10512724;28;2055;-76
2022/05/16 00:37:16;;;;;;;;;;;15.50;99.90;;;14.50;81.28;95667.53;10515574;28;1919;-75
2022/05/16 00:42:19;;;;;;;;;;;15.50;99.90;;;14.41;81.16;95663.91;10492015;28;1973;-75
2022/05/16 00:47:22;;;;;;;;;;;15.40;99.90;;;14.27;81.77;95660.41;10510427;28;1854;-76
2022/05/16 00:52:26;;;;;;;;;;;;;;;14.21;82.20;95656.19;10513995;28;1881;-76
2022/05/16 00:57:30;;;;;;;;;;;;;;;14.18;84.65;95665.69;10498462;28;1889;-76
2022/05/16 01:07:55;;;;;;;;;;;;;;;14.10;85.09;95646.66;10498405;28;1993;-75
2022/05/16 01:13:00;;;;;;;;;;;;;;;14.04;85.47;95662.97;10504039;28;1908;-76
2022/05/16 01:18:05;;;;;;;;;;;;;;;13.94;85.13;95660.47;10498865;28;1909;-76
2022/05/16 01:23:09;;;;;;;;;;;;;;;13.90;85.55;95670.25;10491092;28;1910;-76
2022/05/16 01:28:15;;;;;;;;;;;;;;;13.92;84.45;95661.84;10509718;28;1911;-76
2022/05/16 01:33:19;;;;;;;;;;;;;;;13.95;85.20;95664.75;10493660;28;1882;-74
2022/05/16 01:38:23;;;;;;;;;;;;;;;14.01;85.85;95665.47;10505394;28;1938;-76
2022/05/16 01:43:27;;;;;;;;;;;;;;;13.88;86.62;95667.06;10505078;28;1922;-76
2022/05/16 01:48:31;;;;;;;;;;;14.90;99.90;;;14.06;85.21;95677.00;10491729;28;1923;-75
2022/05/16 01:53:34;;;;;;;;;;;14.90;99.90;;;13.90;85.92;95691.88;10486512;28;1827;-75
2022/05/16 01:58:37;;;;;;;;;;;14.90;99.90;;;13.91;87.24;95681.84;10508312;28;1866;-76
2022/05/16 02:03:40;;;;;;;;;;;15.00;99.90;;;13.90;86.33;95686.47;10489971;28;1917;-76
2022/05/16 02:08:43;;;;;;;;;;;14.90;99.90;;;13.88;86.56;95685.16;10509081;28;1775;-75
2022/05/16 02:13:47;;;;;;;;;;;14.90;99.90;;;13.84;87.19;95686.84;10506322;28;1800;-76
2022/05/16 02:18:50;;;;;;;;;;;14.90;99.90;;;13.90;87.98;95689.16;10482453;28;1918;-75
2022/05/16 02:29:14;;;;;;;;;;;14.90;99.90;;;13.95;84.77;95677.47;10505128;28;1974;-75
2022/05/16 02:34:17;;;;;;;;;;;15.00;99.90;;;13.99;85.25;95668.44;10482500;28;1696;-76
2022/05/16 02:39:20;;;;;;;;;;;14.90;99.90;;;13.99;85.54;95668.44;10486370;28;1814;-75
2022/05/16 02:44:24;;;;;;;;;;;14.90;99.90;;;14.09;86.25;95670.19;10502160;28;1984;-75
2022/05/16 02:49:28;;;;;;;;;;;15.00;99.90;;;14.28;84.05;95670.09;10504430;28;1973;-75
2022/05/16 02:54:31;;;;;;;;;;;15.10;99.90;;;14.35;84.11;95675.91;10504776;28;1926;-75
2022/05/16 02:59:34;;;;;;;;;;;15.10;99.90;;;14.49;83.86;95681.34;10493810;28;1904;-76
2022/05/16 03:04:38;;;;;;;;;;;15.20;99.90;;;14.48;84.58;95685.97;10515327;28;1917;-75
2022/05/16 03:09:41;;;;;;;;;;;15.30;99.90;;;14.52;84.35;95686.19;10508625;28;1915;-75
2022/05/16 03:14:45;;;;;;;;;;;15.30;99.90;;;14.60;83.67;95688.97;10488636;28;1948;-75
2022/05/16 03:19:48;;;;;;;;;;;15.40;99.90;;;14.59;83.37;95673.84;10492119;28;1850;-75
2022/05/16 03:24:51;;;;;;;;;;;15.40;99.90;;;14.60;81.28;95671.94;10504906;28;2022;-76
2022/05/16 03:29:55;;;;;;;;;;;15.40;99.90;;;14.66;80.55;95668.03;10508853;28;1962;-76
2022/05/16 03:34:58;;;;;;;;;;;15.50;99.90;;;14.69;79.10;95663.91;10496574;28;1988;-74
2022/05/16 03:45:22;;;;;;;;;;;15.50;99.90;;;14.78;78.22;95667.53;10504834;28;1939;-75
2022/05/16 03:50:26;;;;;;;;;;;15.60;99.90;;;14.83;77.33;95670.94;10504171;28;1864;-75
2022/05/16 03:55:31;;;;;;;;;;;15.60;99.90;;;14.91;78.30;95677.53;10503566;28;2041;-75
2022/05/16 04:00:34;;;;;;;;;;;15.70;99.90;;;15.09;77.50;95673.09;10508959;28;1970;-76
2022/05/16 04:05:38;;;;;;;;;;;15.90;99.90;;;15.19;77.39;95680.19;10486250;28;1919;-76
2022/05/16 04:10:42;;;;;;;;;;;15.90;99.90;;;15.36;77.40;95688.47;10504198;28;2004;-77
2022/05/16 04:15:46;;;;;;;;;;;16.00;99.90;;;15.47;77.41;95689.03;10514446;28;2034;-76
2022/05/16 04:20:49;;;;;;;;;;;16.10;99.90;;;15.54;76.96;95690.22;10512312;28;1967;-76
2022/05/16 04:25:52;;;;;;;;;;;16.30;99.90;;;15.59;76.99;95689.28;10507686;28;1808;-76
2022/05/16 04:30:55;;;;;;;;;;;16.30;99.90;;;15.82;76.64;95684.69;10503053;28;2057;-76
2022/05/16 04:35:58;;;;;;;;;;;16.50;99.90;;;15.81;77.51;95685.81;10491142;28;2013;-77
2022/05/16 04:46:22;;;;;;;;;;;16.70;99.90;;;16.24;75.41;95690.69;10503206;28;1900;-75
2022/05/16 04:51:25;;;;;;;;;;;16.90;99.90;;;16.55;74.80;95691.47;10492620;28;1940;-77
2022/05/16 04:56:28;;;;;;;;;;;17.00;99.90;;;16.61;75.29;95676.66;10499691;28;1888;-76
2022/05/16 05:01:32;;;;;;;;;;;17.20;99.90;;;16.75;74.01;95690.94;10506845;28;1977;-77
2022/05/16 05:06:35;;;;;;;;;;;17.50;99.90;;;17.01;74.30;95693.72;10492488;28;1897;-78
2022/05/16 05:16:59;;;;;;;;;;;17.70;99.90;;;17.39;72.27;95704.00;10507804;28;1947;-77
2022/05/16 05:22:03;;;;;;;;;;;17.90;99.90;;;17.45;71.12;95702.72;10512500;28;1931;-77
2022/05/16 05:27:07;;;;;;;;;;;18.10;99.90;;;17.51;70.52;95700.66;10505028;28;1951;-76
2022/05/16 05:32:11;;;;;;;;;;;18.30;99.90;;;17.48;71.31;95702.09;10492470;28;1866;-74
2022/05/16 05:37:14;;;;;;;;;;;18.30;99.90;;;17.59;71.54;95696.34;10509161;28;2007;-75
2022/05/16 05:42:17;;;;;;;;;;;18.30;99.90;;;17.71;71.29;95699.22;10488513;28;2043;-73
2022/05/16 05:47:20;;;;;;;;;;;18.40;99.90;;;18.50;67.47;95690.59;10462007;28;1917;-79
2022/05/16 05:52:28;;;;;;;;;;;18.80;99.90;;;19.26;65.39;95695.19;10460495;28;1881;-78
2022/05/16 05:57:31;;;;;;;;;;;19.40;99.90;;;20.14;60.41;95696.13;10467684;28;1877;-78
2022/05/16 06:02:37;;;;;;;;;;;20.10;99.90;;;20.61;57.92;95695.78;10488777;28;1980;-77
2022/05/16 06:07:40;;;;;;;;;;;20.90;99.90;;;21.30;55.74;95705.84;10504771;28;1932;-80
2022/05/16 06:12:43;;;;;;;;;;;21.50;99.90;;;21.40;54.88;95699.91;10515507;28;1982;-82
2022/05/16 06:17:46;;;;;;;;;;;22.00;99.90;;;21.90;53.14;95715.06;10517729;28;1900;-84
2022/05/16 06:22:49;;;;;;;;;;;22.20;99.90;;;21.66;54.07;95712.41;10492472;28;1996;-80
2022/05/16 06:27:52;;;;;;;;;;;22.30;99.90;;;21.90;54.07;95720.53;10524814;28;1951;-78
2022/05/16 06:32:55;;;;;;;;;;;22.30;99.90;;;22.21;51.99;95719.88;10537325;28;1901;-80
2022/05/16 06:37:58;;;;;;;;;;;22.50;99.90;;;22.00;52.61;95736.44;10506460;28;1827;-80
2022/05/16 06:43:01;;;;;;;;;;;22.60;99.90;;;22.32;51.32;95729.16;10512027;28;1938;-75
2022/05/16 06:48:04;;;;;;;;;;;;;;;22.71;49.95;95739.56;10503295;28;1845;-75
2022/05/16 06:53:08;;;;;;;;;;;;;;;22.90;48.93;95747.91;10487887;28;1876;-74
2022/05/16 06:58:11;;;;;;;;;;;;;;;22.77;50.53;95754.59;10509113;28;1843;-78
2022/05/16 07:03:14;;;;;;;;;;;;;;;22.39;51.30;95755.94;10514705;28;1933;-75
2022/05/16 07:08:21;;;;;;;;;;;;;;;22.78;50.81;95767.97;10488083;28;1836;-76
2022/05/16 07:13:25;;;;;;;;;;;;;;;23.08;50.10;95775.78;10483725;28;1918;-76
2022/05/16 07:18:28;;;;;;;;;;;;;;;22.63;51.46;95793.38;10479530;28;1816;-77
2022/05/16 07:23:31;;;;;;;;;;;22.80;99.90;;;22.21;53.07;95803.97;10499017;28;1968;-77
2022/05/16 07:28:34;;;;;;;;;;;22.90;99.90;;;22.29;52.72;95805.75;10502439;28;1880;-76
2022/05/16 07:33:37;;;;;;;;;;;22.60;99.90;;;22.40;51.41;95806.84;10484387;28;1944;-75
2022/05/16 07:38:40;;;;;;;;;;;22.80;99.90;;;22.21;51.87;95806.69;10504122;28;1911;-75
2022/05/16 07:43:43;;;;;;;;;;;22.80;99.90;;;22.71;50.43;95810.81;10500672;28;1909;-75
2022/05/16 07:48:46;;;;;;;;;;;23.00;99.90;;;23.50;48.29;95814.44;10500522;28;1958;-76
2022/05/16 07:53:49;;;;;;;;;;;;;;;24.16;46.82;95813.59;10495221;28;1839;-77
2022/05/16 07:58:53;;;;;;;;;;;;;;;24.15;46.74;95831.22;10482262;28;1856;-76
2022/05/16 08:03:57;;;;;;;;;;;24.60;99.90;;;23.36;49.17;95838.78;10508357;28;1905;-75
2022/05/16 08:14:23;;;;;;;;;;;;;;;23.30;49.69;95848.41;10502467;28;1934;-75
2022/05/16 08:19:29;;;;;;;;;;;24.30;99.90;;;23.73;47.35;95845.59;10486744;28;2115;-75
2022/05/16 08:24:32;;;;;;;;;;;;;;;23.44;47.20;95857.00;10480188;28;1902;-76
2022/05/16 08:29:35;;;;;;;;;;;;;;;24.92;43.30;95857.94;10486271;28;1873;-73
2022/05/16 08:34:39;;;;;;;;;;;;;;;24.76;43.95;95865.50;10483045;28;1775;-74
2022/05/16 08:39:56;;;;;;;;;;;;;;;24.08;45.94;95877.75;10496202;28;1810;-77
2022/05/16 08:44:59;;;;;;;;;;;;;;;23.83;47.69;95893.66;10498173;28;1914;-76
2022/05/16 08:50:03;;;;;;;;;;;;;;;24.15;46.80;95899.88;10502477;28;1790;-76
2022/05/16 08:55:06;;;;;;;;;;;;;;;23.78;47.92;95904.09;10489227;28;1770;-74
2022/05/16 09:00:10;;;;;;;;;;;;;;;23.59;48.63;95904.78;10508065;28;1869;-76
2022/05/16 09:05:13;;;;;;;;;;;;;;;23.00;48.85;95917.34;10496382;28;2141;-76
2022/05/16 09:10:17;;;;;;;;;;;;;;;22.49;50.89;95924.47;10502980;28;1845;-75
2022/05/16 09:15:23;;;;;;;;;;;;;;;22.21;52.01;95929.91;10520632;28;1919;-75
2022/05/16 09:20:26;;;;;;;;;;;;;;;21.83;54.21;95940.03;10487082;28;1825;-75
2022/05/16 09:25:30;;;;;;;;;;;;;;;21.64;56.04;95950.75;10485085;28;1985;-75
2022/05/16 09:30:33;;;;;;;;;;;;;;;21.43;57.75;95953.53;10508530;28;1849;-74
2022/05/16 09:35:37;;;;;;;;;;;;;;;21.09;58.68;95945.66;10482946;28;1878;-74
2022/05/16 09:40:40;;;;;;;;;;;;;;;21.09;58.12;95951.94;10492159;28;1839;-74
2022/05/16 09:45:44;;;;;;;;;;;;;;;21.16;57.93;95959.59;10507769;28;1996;-75
2022/05/16 09:50:48;;;;;;;;;;;;;;;21.99;56.03;95956.56;10485277;28;1817;-75
2022/05/16 09:55:53;;;;;;;;;;;;;;;22.24;54.26;95962.06;10503159;28;1782;-73
2022/05/16 10:00:56;;;;;;;;;;;;;;;21.92;54.09;95961.00;10486880;28;2872;-75
2022/05/16 10:06:00;;;;;;;;;;;;;;;21.89;54.13;95961.72;10485996;28;1993;-76
2022/05/16 10:11:04;;;;;;;;;;;;;;;21.92;54.15;95961.00;10503077;28;1904;-76
2022/05/16 10:16:07;;;;;;;;;;;;;;;22.25;52.63;95964.44;10485132;28;2205;-75
2022/05/16 10:21:11;;;;;;;;;;;;;;;22.74;51.21;95963.56;10481925;28;1856;-76
2022/05/16 10:26:14;;;;;;;;;;;;;;;22.80;50.41;95959.44;10499842;28;1927;-75
2022/05/16 10:36:39;;;;;;;;;;;23.30;99.90;;;22.09;50.33;95961.63;10479094;28;1801;-75
2022/05/16 10:41:42;;;;;;;;;;;23.00;99.90;;;21.81;53.71;95966.13;10506144;28;1782;-77
2022/05/16 10:46:45;;;;;;;;;;;22.80;99.90;;;21.44;56.07;95962.53;10491522;28;1914;-77
2022/05/16 10:51:52;;;;;;;;;;;22.40;99.90;;;20.97;61.85;95957.34;10505386;28;1495;-77
2022/05/16 10:56:55;;;;;;;;;;;22.20;99.90;;;20.34;65.79;95954.59;10490320;28;1931;-76
2022/05/16 11:01:58;;;;;;;;;;;21.60;99.90;;;19.89;73.37;95955.19;10485864;28;1846;-75
2022/05/16 11:07:02;;;;;;;;;;;21.10;99.90;;;19.63;76.14;95957.22;10500957;28;1755;-76
2022/05/16 11:12:05;;;;;;;;;;;20.70;99.90;;;19.85;78.50;95945.25;10501651;28;1906;-76
2022/05/16 11:17:08;;;;;;;;;;;20.50;99.90;;;20.35;76.29;95939.81;10500576;28;2267;-75
2022/05/16 11:22:12;;;;;;;;;;;20.70;99.90;;;20.98;66.70;95934.34;10505135;28;1905;-74
2022/05/16 11:27:15;;;;;;;;;;;21.30;99.90;;;21.04;71.04;95943.94;10500343;28;1871;-75
2022/05/16 11:32:17;;;;;;;;;;;21.50;99.90;;;21.18;64.72;95930.75;10487302;28;1836;-74
2022/05/16 11:37:20;;;;;;;;;;;21.70;99.90;;;22.18;62.24;95916.88;10487897;28;1824;-73
2022/05/16 11:42:23;;;;;;;;;;;22.10;99.90;;;22.49;59.12;95908.84;10474076;28;1989;-75
2022/05/16 11:47:26;;;;;;;;;;;22.60;99.90;;;23.31;55.32;95888.41;10500926;28;1778;-72
2022/05/16 11:52:49;;;;;;;;;;;23.30;99.90;;;23.95;52.23;95879.81;10479561;28;1812;-75
2022/05/16 12:03:15;;;;;;;;;;;24.70;99.90;;;25.53;47.05;95848.84;10498539;28;1975;-74
2022/05/16 12:08:19;;;;;;;;;;;25.80;99.90;;;25.96;44.48;95845.97;10481591;28;2505;-77
2022/05/16 12:13:22;;;;;;;;;;;26.30;99.90;;;26.26;42.41;95848.78;10491522;28;1862;-77
2022/05/16 12:18:26;;;;;;;;;;;26.90;99.90;;;26.05;41.74;95850.06;10478820;28;1835;-78
2022/05/16 12:23:28;;;;;;;;;;;26.90;99.90;;;25.56;43.20;95844.56;10476279;28;1913;-77
2022/05/16 12:28:32;;;;;;;;;;;26.70;99.90;;;25.84;41.78;95831.28;10499645;28;1869;-75
2022/05/16 12:33:34;;;;;;;;;;;26.60;99.90;;;25.77;41.07;95828.44;10501663;28;2010;-78
2022/05/16 12:38:37;;;;;;;;;;;26.50;99.90;;;25.65;42.71;95809.31;10500921;28;1808;-74
2022/05/16 12:43:40;;;;;;;;;;;26.60;99.90;;;25.70;43.22;95817.25;10507040;28;1979;-80
2022/05/16 12:48:43;;;;;;;;;;;26.60;99.90;;;25.42;41.46;95801.09;10524834;28;2320;-77
2022/05/16 12:53:46;;;;;;;;;;;26.60;99.90;;;24.92;42.75;95807.66;10483534;28;1995;-78
2022/05/16 12:58:49;;;;;;;;;;;26.30;99.90;;;25.14;42.57;95801.41;10503207;28;1835;-76
2022/05/16 13:03:53;;;;;;;;;;;26.10;99.90;;;25.14;42.24;95795.91;10498770;28;2251;-71
2022/05/16 13:09:08;;;;;;;;;;;26.10;99.90;;;24.66;41.52;95800.09;10479570;28;1812;-69
2022/05/16 13:14:17;;;;;;;;;;;25.80;99.90;;;25.10;42.84;95795.06;10488658;28;1831;-70
2022/05/16 13:19:22;;;;;;;;;;;25.90;99.90;;;25.41;41.04;95785.75;10504876;28;1865;-71
2022/05/16 13:24:25;;;;;;;;;;;26.20;99.90;;;24.97;40.12;95785.38;10483001;28;1986;-70
2022/05/16 13:29:33;;;;;;;;;;;26.10;99.90;;;24.76;41.62;95783.81;10478909;28;1873;-69
2022/05/16 13:34:36;;;;;;;;;;;25.70;99.90;;;25.16;40.23;95765.28;10497187;28;1845;-70
2022/05/16 13:39:39;;;;;;;;;;;25.90;99.90;;;25.43;39.38;95772.41;10502879;28;1816;-72
2022/05/16 13:44:42;;;;;;;;;;;26.10;99.90;;;24.82;40.83;95747.78;10510028;28;1991;-71
2022/05/16 13:49:45;;;;;;;;;;;26.10;99.90;;;25.17;40.98;95762.16;10501362;28;1920;-71
2022/05/16 13:54:48;;;;;;;;;;;25.90;99.90;;;25.62;40.49;95738.50;10498316;28;1874;-71
2022/05/16 13:59:51;;;;;;;;;;;26.10;99.90;;;25.83;39.27;95738.00;10502575;28;1826;-71
2022/05/16 14:04:56;;;;;;;;;;;26.60;99.90;;;25.77;40.07;95732.06;10493026;28;1930;-76
2022/05/16 14:09:58;;;;;;;;;;;26.50;99.90;;;25.87;38.69;95725.09;10487700;28;1813;-77
2022/05/16 14:15:03;;;;;;;;;;;26.50;99.30;;;26.29;38.09;95722.09;10504798;28;2357;-80
2022/05/16 14:20:06;;;;;;;;;;;26.70;99.30;;;26.02;39.61;95726.06;10488254;28;1910;-77
2022/05/16 14:25:09;;;;;;;;;;;26.70;99.60;;;25.41;40.25;95727.19;10488098;28;2228;-77
2022/05/16 14:30:12;;;;;;;;;;;26.40;99.60;;;25.40;40.72;95726.38;10513161;28;2175;-77
2022/05/16 14:35:15;;;;;;;;;;;26.10;99.90;;;25.85;39.18;95711.72;10496117;28;1816;-74
2022/05/16 14:40:18;;;;;;;;;;;26.30;99.80;;;25.65;40.68;95712.19;10500157;28;1944;-74
2022/05/16 14:46:42;;;;;;;;;;;26.40;99.90;;;25.15;41.55;95744.44;10502683;28;1918;-75
2022/05/16 14:50:45;;;;;;;;;;;26.30;99.90;;;23.97;44.28;95731.22;10494339;28;1719;-78
2022/05/16 14:55:48;;;;;;;;;;;24.60;99.90;;;22.22;48.90;95800.06;10480022;28;1910;-74
2022/05/16 15:06:14;;;;;;;;;;;21.70;99.90;;;15.25;100.00;95863.09;10500977;28;1922;-74
2022/05/16 15:11:17;;;;;;;;;;;17.70;99.90;;;14.24;100.00;95855.63;10508185;28;1869;-75
2022/05/16 15:16:20;;;;;;;;;;;15.90;99.90;;;13.87;100.00;95819.47;10487886;28;1836;-75
2022/05/16 15:21:24;;;;;;;;;;;15.10;99.90;;;13.89;100.00;95857.78;10504841;28;1756;-74
2022/05/16 15:26:29;;;;;;;;;;;14.70;99.90;;;14.11;100.00;95880.72;10478844;28;2292;-75
2022/05/16 15:31:31;;;;;;;;;;;14.70;99.90;;;14.40;100.00;95875.16;10500036;28;1697;-74
2022/05/16 15:36:34;;;;;;;;;;;15.10;99.90;;;15.00;100.00;95858.97;10491002;28;1855;-72
2022/05/16 15:41:38;;;;;;;;;;;15.40;99.90;;;15.87;100.00;95860.75;10492101;28;1917;-74
2022/05/16 15:46:41;;;;;;;;;;;15.90;99.90;;;16.96;100.00;95837.78;10502935;28;1985;-74
2022/05/16 15:51:45;;;;;;;;;;;16.80;99.90;;;17.96;100.00;95822.72;10497261;28;1814;-74
2022/05/16 15:56:48;;;;;;;;;;;17.70;99.90;;;18.79;100.00;95828.75;10487896;28;1812;-74
2022/05/16 16:01:52;;;;;;;;;;;18.70;99.90;;;19.20;98.98;95823.78;10497464;28;1845;-75
2022/05/16 16:12:15;;;;;;;;;;;19.70;99.90;;;19.40;93.37;95807.53;10501403;28;1813;-75
2022/05/16 16:17:19;;;;;;;;;;;20.00;99.90;;;19.29;95.98;95806.28;10497473;28;1860;-75
2022/05/16 16:22:23;;;;;;;;;;;20.00;99.90;;;18.88;96.61;95802.28;10503721;28;1800;-73
2022/05/16 16:27:27;;;;;;;;;;;19.80;99.90;;;18.59;98.15;95810.34;10483681;28;1981;-72
2022/05/16 16:32:29;;;;;;;;;;;19.60;99.90;;;18.31;97.04;95818.88;10475924;28;1812;-74
2022/05/16 16:37:36;;;;;;;;;;;19.40;99.90;;;18.38;98.86;95821.09;10477506;28;1807;-74
2022/05/16 16:42:41;;;;;;;;;;;19.00;99.90;;;18.16;99.69;95832.97;10499480;28;1863;-74
2022/05/16 16:47:45;;;;;;;;;;;19.10;99.90;;;18.15;100.00;95839.53;10477411;28;1906;-74
2022/05/16 16:58:08;;;;;;;;;;;18.90;99.90;;;18.15;100.00;95855.06;10485927;28;1880;-74
2022/05/16 17:03:13;;;;;;;;;;;19.00;99.90;;;18.18;100.00;95871.53;10486516;28;2256;-74
2022/05/16 17:08:16;;;;;;;;;;;18.90;99.90;;;18.10;100.00;95875.84;10497324;28;1989;-73
2022/05/16 17:13:21;;;;;;;;;;;19.00;99.90;;;18.10;97.88;95861.44;10496102;28;2266;-74
2022/05/16 17:18:24;;;;;;;;;;;18.80;99.90;;;18.14;94.34;95854.25;10485901;28;1460;-75
2022/05/16 17:23:29;;;;;;;;;;;19.00;99.90;;;18.36;98.55;95872.34;10491471;28;1806;-73
2022/05/16 17:28:33;;;;;;;;;;;18.90;99.90;;;18.33;96.10;95876.50;10518463;28;2024;-74
2022/05/16 17:33:36;;;;;;;;;;;19.10;99.90;;;18.33;95.42;95881.94;10506567;28;1772;-75
2022/05/16 17:38:50;;;;;;;;;;;19.00;99.90;;;18.01;99.06;95896.00;10491644;28;1909;-74
2022/05/16 17:43:53;;;;;;;;;;;19.00;99.90;;;17.81;100.00;95898.22;10505190;28;1914;-73
2022/05/16 17:48:59;;;;;;;;;;;18.90;99.90;;;17.68;100.00;95907.25;10511418;28;1924;-74
2022/05/16 17:54:02;;;;;;;;;;;18.70;99.90;;;17.64;100.00;95903.56;10508352;28;1841;-74
2022/05/16 17:59:05;;;;;;;;;;;18.50;99.90;;;17.58;100.00;95907.53;10514240;28;1855;-74
2022/05/16 18:04:08;;;;;;;;;;;18.30;99.90;;;17.52;100.00;95919.66;10499341;28;1918;-75
2022/05/16 18:09:10;;;;;;;;;;;18.20;99.90;;;17.49;100.00;95929.25;10484514;28;1803;-74
2022/05/16 18:14:16;;;;;;;;;;;18.40;99.90;;;17.37;100.00;95933.66;10510727;28;1774;-74
2022/05/16 18:19:20;;;;;;;;;;;18.40;99.90;;;17.43;100.00;95943.28;10482261;28;3592;-73
2022/05/16 18:24:23;;;;;;;;;;;18.40;99.90;;;17.37;100.00;95944.53;10497095;28;1945;-73
2022/05/16 18:29:26;;;;;;;;;;;18.40;99.90;;;17.41;100.00;95959.09;10500269;28;1806;-74
2022/05/16 18:34:29;;;;;;;;;;;18.40;99.90;;;17.32;100.00;95964.50;10488358;28;1904;-75
2022/05/16 18:39:33;;;;;;;;;;;18.10;99.90;;;17.33;100.00;95968.81;10503356;28;1782;-73
2022/05/16 18:55:18;;;;;;;;;;;18.30;99.90;;;17.32;100.00;95997.09;10483952;28;1780;-74
2022/05/16 19:00:22;;;;;;;;;;;18.40;99.90;;;17.09;100.00;96004.47;10502959;28;1642;-73
2022/05/16 19:05:25;;;;;;;;;;;17.80;99.90;;;16.84;100.00;96016.72;10486955;28;1890;-74
2022/05/16 19:10:28;;;;;;;;;;;17.60;99.90;;;16.66;100.00;96029.31;10484920;28;1802;-73
2022/05/16 19:15:33;;;;;;;;;;;17.50;99.90;;;16.40;100.00;96031.00;10504974;28;1744;-71
2022/05/16 19:20:36;;;;;;;;;;;17.40;99.90;;;16.19;100.00;96028.72;10481973;28;1825;-72
2022/05/16 19:25:39;;;;;;;;;;;17.10;99.90;;;16.04;100.00;96031.75;10479280;28;1986;-73
2022/05/16 19:36:03;;;;;;;;;;;16.90;99.90;;;15.71;100.00;96028.28;10495955;28;1833;-74
2022/05/16 19:41:06;;;;;;;;;;;16.70;99.90;;;15.58;100.00;96037.19;10478636;28;2106;-74
2022/05/16 19:46:11;;;;;;;;;;;16.50;99.90;;;15.40;100.00;96038.88;10476243;28;1927;-73
2022/05/16 19:51:15;;;;;;;;;;;16.40;99.90;;;15.22;100.00;96039.72;10499450;28;2013;-75
2022/05/16 19:56:18;;;;;;;;;;;16.20;99.90;;;15.06;100.00;96036.44;10497436;28;1817;-75
2022/05/16 20:01:21;;;;;;;;;;;16.00;99.90;;;14.99;100.00;96039.53;10501503;28;1867;-74
2022/05/16 20:06:24;;;;;;;;;;;16.00;99.90;;;14.86;100.00;96040.28;10507926;28;1914;-74
2022/05/16 20:11:26;;;;;;;;;;;15.80;99.90;;;14.74;100.00;96048.03;10483059;28;1553;-74
2022/05/16 20:16:29;;;;;;;;;;;15.70;99.90;;;14.70;100.00;96044.34;10481884;28;1805;-74
2022/05/16 20:21:32;;;;;;;;;;;15.60;99.90;;;14.63;100.00;96050.09;10503007;28;1790;-74
2022/05/16 20:26:36;;;;;;;;;;;15.60;99.90;;;14.60;100.00;96051.47;10475821;28;1906;-75
2022/05/16 20:31:39;;;;;;;;;;;15.50;99.90;;;14.47;100.00;96056.81;10485486;28;1802;-75
2022/05/16 20:36:42;;;;;;;;;;;15.40;99.90;;;14.31;100.00;96048.88;10501651;28;1769;-75
2022/05/16 20:41:45;;;;;;;;;;;15.20;99.90;;;14.29;100.00;96050.25;10502069;28;1869;-74
2022/05/16 20:46:49;;;;;;;;;;;15.30;99.90;;;14.29;100.00;96039.44;10488574;28;1985;-73
2022/05/16 20:51:57;;;;;;;;;;;15.10;99.90;;;14.30;100.00;96043.75;10494133;28;1798;-73
2022/05/16 20:57:00;;;;;;;;;;;15.30;99.90;;;14.28;100.00;96038.63;10494573;28;1750;-73
2022/05/16 21:02:03;;;;;;;;;;;15.30;99.90;;;14.37;100.00;96068.53;10509324;28;1977;-73
2022/05/16 21:07:06;;;;;;;;;;;15.30;99.90;;;14.23;100.00;96063.03;10491300;28;1890;-73
2022/05/16 21:12:10;;;;;;;;;;;;;;;14.20;100.00;96042.00;10494697;28;1787;-73
2022/05/16 21:17:14;;;;;;;;;;;;;;;14.23;100.00;96046.00;10507755;28;1775;-73
2022/05/16 21:22:17;;;;;;;;;;;;;;;14.18;100.00;96048.75;10492020;28;1788;-74
2022/05/16 21:27:21;;;;;;;;;;;15.00;99.90;;;14.12;100.00;96049.91;10497254;28;1965;-74
2022/05/16 21:32:24;;;;;;;;;;;;;;;14.11;100.00;96042.91;10511107;28;1888;-74
2022/05/16 21:37:27;;;;;;;;;;;15.00;99.90;;;14.10;100.00;96044.00;10500405;28;1999;-73
2022/05/16 21:42:30;;;;;;;;;;;15.00;99.90;;;14.03;100.00;96047.06;10505439;28;1793;-73
2022/05/16 21:47:34;;;;;;;;;;;15.00;99.90;;;14.01;100.00;96054.66;10511895;28;1977;-74
2022/05/16 21:52:36;;;;;;;;;;;15.00;99.90;;;13.96;100.00;96052.81;10485140;28;1844;-72
2022/05/16 21:57:41;;;;;;;;;;;;;;;13.92;100.00;96051.78;10510580;28;1998;-73
2022/05/16 22:02:44;;;;;;;;;;;;;;;13.93;100.00;96057.97;10513193;28;1818;-73
2022/05/16 22:07:48;;;;;;;;;;;;;;;13.87;100.00;96053.72;10491594;28;1982;-73
2022/05/16 22:12:52;;;;;;;;;;;;;;;13.99;100.00;96057.63;10508408;28;1838;-74
2022/05/16 22:17:55;;;;;;;;;;;;;;;14.12;100.00;96049.91;10503345;28;1836;-73
2022/05/16 22:22:59;;;;;;;;;;;;;;;14.17;100.00;96055.28;10494238;28;1888;-73
2022/05/16 22:28:02;;;;;;;;;;;;;;;14.07;100.00;96057.00;10504380;28;2069;-73
2022/05/16 22:33:05;;;;;;;;;;;;;;;14.03;100.00;96061.38;10497158;28;1811;-73
2022/05/16 22:38:09;;;;;;;;;;;;;;;14.05;100.00;96064.59;10492080;28;1750;-73
2022/05/16 22:43:12;;;;;;;;;;;;;;;14.04;100.00;96068.38;10512471;28;1866;-73
2022/05/16 22:48:16;;;;;;;;;;;;;;;14.00;100.00;96061.16;10509254;28;2132;-72
2022/05/16 22:53:19;;;;;;;;;;;;;;;14.01;100.00;96066.28;10484160;28;1856;-72
2022/05/16 22:58:23;;;;;;;;;;;;;;;14.02;100.00;96062.47;10511516;28;1989;-72
2022/05/16 23:03:29;;;;;;;;;;;;;;;13.95;100.00;96070.13;10482933;28;2372;-72
2022/05/16 23:08:34;;;;;;;;;;;;;;;13.90;100.00;96067.47;10503570;28;1991;-72
2022/05/16 23:13:37;;;;;;;;;;;;;;;13.87;100.00;96064.53;10486181;28;1871;-72
2022/05/16 23:18:41;;;;;;;;;;;;;;;13.78;100.00;96072.47;10483047;28;1796;-73
2022/05/16 23:23:45;;;;;;;;;;;;;;;13.77;100.00;96073.56;10494893;28;1899;-72
2022/05/16 23:28:48;;;;;;;;;;;;;;;13.72;100.00;96079.81;10488316;28;1982;-72
2022/05/16 23:33:52;;;;;;;;;;;;;;;13.67;100.00;96073.66;10512030;28;1725;-72
2022/05/16 23:38:56;;;;;;;;;;;;;;;13.65;100.00;96076.66;10481671;28;1804;-72
2022/05/16 23:43:59;;;;;;;;;;;;;;;13.64;100.00;96077.75;10488583;28;1826;-72
2022/05/16 23:49:03;;;;;;;;;;;;;;;13.70;100.00;96084.72;10502709;28;1985;-72
2022/05/16 23:54:08;;;;;;;;;;;;;;;13.73;100.00;96077.91;10490278;28;1796;-73
2022/05/16 23:59:11;;;;;;;;;;;;;;;13.71;100.00;96077.41;10500605;28;1772;-72
